This is the latest recevied weather packets stored in our database for station/object N4AN. If no packets are shown the sender has not sent any weather packets the latest 1 day(s).
| Time | Temp. | Humidity | Pressure | Rain* | Wind** | Luminosity | Snow |
|---|---|---|---|---|---|---|---|
| 1778032503 | 26.67° C | 77% | 1009.7 hPa | 0 mm | 4.92 m/s, 86° | - | - |
| 1778032202 | 26.67° C | 77% | 1009.6 hPa | 0 mm | 1.34 m/s, 1° | - | - |
| 1778031808 | 26.67° C | 76% | 1009.6 hPa | 0 mm | 2.24 m/s, 306° | - | - |
| 1778031473 | 26.67° C | 76% | 1009.5 hPa | 0 mm | 3.13 m/s, 1° | - | - |
| 1778031304 | 26.67° C | 77% | 1009.6 hPa | 0 mm | 4.47 m/s, 93° | - | - |
| 1778031303 | 26.67° C | 79% | 1009.6 hPa | 0 mm | 1.79 m/s, 77° | - | - |
| 1778030128 | 26.11° C | 80% | 1009.6 hPa | 0 mm | 4.02 m/s, 356° | - | - |
| 1778029828 | 25.56° C | 81% | 1009.6 hPa | 0 mm | 2.68 m/s, 1° | - | - |
| 1778029527 | 25.56° C | 82% | 1009.6 hPa | 0 mm | 4.92 m/s, 283° | - | - |
| 1778029227 | 25.56° C | 81% | 1009.7 hPa | 0 mm | 2.24 m/s, 8° | - | - |
| 1778028927 | 25.56° C | 81% | 1009.7 hPa | 0 mm | 4.02 m/s, 86° | - | - |
| 1778028626 | 25.56° C | 82% | 1009.8 hPa | 0 mm | 3.58 m/s, 351° | - | - |
| 1778028326 | 25.56° C | 82% | 1009.8 hPa | 0 mm | 1.34 m/s, 89° | - | - |
| 1778028026 | 25.56° C | 81% | 1009.8 hPa | 0 mm | 3.13 m/s, 358° | - | - |
| 1778027726 | 25.56° C | 83% | 1009.7 hPa | 0 mm | 1.34 m/s, 9° | - | - |
| 1778027422 | 25° C | 82% | 1009.7 hPa | 0 mm | 2.24 m/s, 299° | - | - |
| 1778027121 | 25° C | 82% | 1009.7 hPa | 0 mm | 1.79 m/s, 350° | - | - |
| 1778026819 | 25° C | 82% | 1009.6 hPa | 0 mm | 0.89 m/s, 245° | - | - |
| 1778026519 | 25° C | 82% | 1009.4 hPa | 0 mm | 2.68 m/s, 245° | - | - |
| 1778026219 | 25° C | 82% | 1009.6 hPa | 0 mm | 1.79 m/s, 56° | - | - |
| 1778025918 | 25.56° C | 82% | 1009.5 hPa | 0 mm | 3.58 m/s, 233° | - | - |
| 1778025618 | 25.56° C | 82% | 1009.2 hPa | 0 mm | 2.24 m/s, 196° | - | - |
| 1778025318 | 25.56° C | 82% | 1009.3 hPa | 0 mm | 4.47 m/s, 11° | - | - |
| 1778025017 | 25.56° C | 82% | 1009.1 hPa | 0 mm | 2.68 m/s, 227° | - | - |
| 1778024717 | 25.56° C | 82% | 1009.1 hPa | 0 mm | 1.79 m/s, 238° | - | - |
* Rain latest hour (hover to see other rain measurements)
** Current wind speed in m/s (hover to see current wind gust speed)